Time;durP1;ratioP1;P1;durP2;ratioP2;P2;SDS_P1;SDS_P2;PMS_P1;PMS_P2;Temp;Humidity;BMP_temperature;BMP_pressure;BME280_temperature;BME280_humidity;BME280_pressure;Samples;Min_cycle;Max_cycle;Signal;HPM_P1;HPM_P2
2023/12/07 00:00:13;;;;;;;19.83;3.70;;;;;;;7.84;100.00;99434.63;5108000;28;20051;-53
2023/12/07 00:02:40;;;;;;;18.08;4.35;;;;;;;7.85;100.00;99443.69;5096918;28;20056;-47
2023/12/07 00:05:08;;;;;;;21.23;5.05;;;;;;;7.86;100.00;99437.03;5123018;28;20039;-49
2023/12/07 00:07:35;;;;;;;13.88;5.13;;;;;;;7.86;100.00;99434.28;5111281;28;20056;-51
2023/12/07 00:10:03;;;;;;;17.30;5.07;;;;;;;7.87;100.00;99422.09;5110058;28;20791;-51
2023/12/07 00:12:36;;;;;;;28.75;5.88;;;;;;;7.87;100.00;99428.41;5109526;28;20404;-48
2023/12/07 00:15:03;;;;;;;23.95;4.00;;;;;;;7.88;100.00;99421.75;5121847;27;20035;-51
2023/12/07 00:17:31;;;;;;;17.05;3.90;;;;;;;7.88;100.00;99419.00;5114325;27;20512;-50
2023/12/07 00:19:59;;;;;;;16.08;3.90;;;;;;;7.89;100.00;99426.09;5111615;28;20043;-48
2023/12/07 00:22:28;;;;;;;23.48;6.57;;;;;;;7.90;100.00;99429.63;5114622;27;20039;-48
2023/12/07 00:24:55;;;;;;;27.20;5.22;;;;;;;7.91;100.00;99434.81;5092825;28;20147;-48
2023/12/07 00:27:23;;;;;;;22.45;4.15;;;;;;;7.93;100.00;99428.94;5110818;27;20069;-46
2023/12/07 00:29:50;;;;;;;21.85;4.18;;;;;;;7.94;100.00;99420.28;5099688;27;20497;-50
2023/12/07 00:32:17;;;;;;;21.48;3.92;;;;;;;7.93;100.00;99418.72;5110455;28;20452;-49
2023/12/07 00:34:45;;;;;;;13.38;4.85;;;;;;;7.94;100.00;99423.03;5119732;27;20051;-48
2023/12/07 00:37:13;;;;;;;21.35;3.83;;;;;;;7.94;100.00;99417.53;5101715;27;21294;-49
2023/12/07 00:39:41;;;;;;;17.67;3.78;;;;;;;7.94;100.00;99403.75;5122772;27;20043;-49
2023/12/07 00:42:09;;;;;;;30.63;6.03;;;;;;;7.95;100.00;99402.59;5110519;27;20096;-48
2023/12/07 00:44:42;;;;;;;13.88;4.28;;;;;;;7.95;100.00;99396.28;5113348;27;20124;-49
2023/12/07 00:47:09;;;;;;;23.55;3.42;;;;;;;7.94;100.00;99395.50;5120611;27;20043;-51
2023/12/07 00:49:42;;;;;;;16.10;3.60;;;;;;;7.94;100.00;99389.97;5111094;28;20047;-51
2023/12/07 00:52:10;;;;;;;21.45;5.13;;;;;;;7.95;100.00;99379.75;5121986;27;20047;-54
2023/12/07 00:54:37;;;;;;;22.45;4.07;;;;;;;7.95;100.00;99361.28;5111217;27;20044;-49
2023/12/07 00:57:05;;;;;;;11.38;2.95;;;;;;;7.95;100.00;99341.19;5115292;27;20501;-51
2023/12/07 00:59:36;;;;;;;18.85;4.57;;;;;;;7.95;100.00;99330.16;5110893;27;20051;-51
2023/12/07 01:02:04;;;;;;;13.50;3.47;;;;;;;7.94;100.00;99318.31;5109917;28;20108;-50
2023/12/07 01:04:33;;;;;;;19.33;3.13;;;;;;;7.94;100.00;99318.31;5109716;28;20040;-52
2023/12/07 01:07:00;;;;;;;14.50;3.25;;;;;;;7.93;100.00;99316.75;5114072;27;20039;-47
2023/12/07 01:09:28;;;;;;;20.95;3.50;;;;;;;7.94;100.00;99317.56;5102310;28;20542;-49
2023/12/07 01:11:55;;;;;;;22.73;3.88;;;;;;;7.95;100.00;99316.38;5109687;28;20043;-48
2023/12/07 01:14:23;;;;;;;20.45;4.18;;;;;;;7.95;100.00;99325.44;5110095;28;20516;-47
2023/12/07 01:16:50;;;;;;;17.02;3.15;;;;;;;7.94;100.00;99329.34;5109910;28;20501;-50
2023/12/07 01:19:17;;;;;;;13.40;3.47;;;;;;;7.95;100.00;99330.97;5109735;28;20100;-49
2023/12/07 01:21:45;;;;;;;13.48;2.60;;;;;;;7.94;100.00;99334.09;5109461;28;20668;-48
2023/12/07 01:24:12;;;;;;;15.05;3.80;;;;;;;7.94;100.00;99334.09;5117933;27;20051;-46
2023/12/07 01:26:43;;;;;;;18.23;4.50;;;;;;;7.94;100.00;99320.31;5113700;27;20044;-48
2023/12/07 01:29:11;;;;;;;14.45;3.42;;;;;;;7.94;100.00;99323.84;5110000;27;20101;-49
2023/12/07 01:31:38;;;;;;;12.68;2.92;;;;;;;7.94;100.00;99312.03;5121778;27;20092;-48
2023/12/07 01:34:06;;;;;;;18.58;4.68;;;;;;;7.95;100.00;99325.44;5119586;27;20055;-52
2023/12/07 01:36:33;;;;;;;28.08;7.40;;;;;;;7.94;100.00;99323.06;5109898;27;20044;-47
2023/12/07 01:39:00;;;;;;;19.92;6.50;;;;;;;7.95;100.00;99300.66;5109908;28;20043;-50
2023/12/07 01:41:28;;;;;;;27.58;5.22;;;;;;;7.95;100.00;99292.38;5109865;27;20065;-52
2023/12/07 01:43:55;;;;;;;19.35;4.18;;;;;;;7.96;100.00;99288.47;5109032;27;20052;-50
2023/12/07 01:46:23;;;;;;;15.77;4.70;;;;;;;7.95;100.00;99286.88;5109582;27;20835;-51
2023/12/07 01:48:50;;;;;;;27.17;5.72;;;;;;;7.99;100.00;99289.69;5091761;28;20080;-52
2023/12/07 01:51:19;;;;;;;12.27;3.15;;;;;;;7.97;100.00;99284.53;5118067;27;20055;-48
2023/12/07 01:53:48;;;;;;;11.82;3.13;;;;;;;7.97;100.00;99287.28;5114675;27;20599;-49
2023/12/07 01:56:16;;;;;;;24.85;6.65;;;;;;;7.99;100.00;99284.97;5109080;28;20565;-52
2023/12/07 01:58:44;;;;;;;46.42;16.40;;;;;;;7.98;100.00;99280.63;5109380;28;20040;-50
2023/12/07 02:01:12;;;;;;;43.28;15.27;;;;;;;7.99;100.00;99276.69;5108947;28;20047;-48
2023/12/07 02:03:40;;;;;;;20.92;10.32;;;;;;;7.99;100.00;99264.91;5109550;28;20052;-51
2023/12/07 02:06:08;;;;;;;18.13;4.90;;;;;;;8.00;100.00;99258.22;5090420;28;20093;-53
2023/12/07 02:08:41;;;;;;;11.77;7.65;;;;;;;7.99;100.00;99257.41;5108982;28;20100;-52
2023/12/07 02:11:09;;;;;;;25.35;8.80;;;;;;;8.01;100.00;99261.75;5108863;28;20044;-52
2023/12/07 02:13:39;;;;;;;30.40;8.52;;;;;;;8.03;100.00;99253.94;5108986;28;20044;-48
2023/12/07 02:16:17;;;;;;;43.38;13.18;;;;;;;8.02;100.00;99238.56;5111233;27;20036;-48
2023/12/07 02:18:53;;;;;;;25.88;5.97;;;;;;;8.02;100.00;99246.84;5119775;27;20040;-50
2023/12/07 02:21:59;;;;;;;15.20;7.13;;;;;;;8.02;100.00;99246.84;5109495;28;20043;-48
2023/12/07 02:24:30;;;;;;;24.63;6.60;;;;;;;8.02;100.00;99236.63;5098397;28;20124;-48
2023/12/07 02:26:58;;;;;;;21.07;8.43;;;;;;;8.03;100.00;99242.91;5102862;28;20040;-50
2023/12/07 02:29:26;;;;;;;12.50;4.30;;;;;;;8.02;100.00;99255.91;5112402;27;20104;-48
2023/12/07 02:31:53;;;;;;;17.33;4.40;;;;;;;8.02;100.00;99244.88;5114409;27;20031;-52
2023/12/07 02:34:20;;;;;;;21.90;8.90;;;;;;;8.04;100.00;99244.50;5117940;27;20080;-52
2023/12/07 02:36:49;;;;;;;18.33;8.50;;;;;;;8.05;100.00;99235.84;5124697;27;20051;-51
2023/12/07 02:39:17;;;;;;;22.23;7.25;;;;;;;8.06;100.00;99225.63;5119964;27;20047;-48
2023/12/07 02:41:47;;;;;;;20.77;6.30;;;;;;;8.08;100.00;99234.34;5114337;27;20557;-51
2023/12/07 02:44:14;;;;;;;16.65;4.28;;;;;;;8.09;100.00;99227.66;5107742;28;20573;-52
2023/12/07 02:46:42;;;;;;;18.20;4.57;;;;;;;8.10;100.00;99232.03;5112474;27;20051;-50
2023/12/07 02:49:09;;;;;;;19.77;5.53;;;;;;;8.11;100.00;99230.84;5110784;27;20052;-53
2023/12/07 02:51:37;;;;;;;19.40;5.95;;;;;;;8.12;100.00;99219.47;5108922;27;20116;-53
2023/12/07 02:54:04;;;;;;;10.43;3.90;;;;;;;8.12;100.00;99208.44;5108996;27;20043;-51
2023/12/07 02:56:31;;;;;;;17.05;3.88;;;;;;;8.15;100.00;99213.25;5120301;27;20047;-51
2023/12/07 02:58:59;;;;;;;17.13;3.80;;;;;;;8.17;100.00;99210.09;5114782;27;20560;-52
2023/12/07 03:01:26;;;;;;;15.02;3.33;;;;;;;8.18;100.00;99211.72;5193457;22;20054;-51
2023/12/07 03:03:54;;;;;;;15.93;3.95;;;;;;;8.20;100.00;99196.38;5106132;28;20055;-49
2023/12/07 03:06:22;;;;;;;21.00;4.53;;;;;;;8.21;100.00;99194.41;5102687;28;20050;-45
2023/12/07 03:08:50;;;;;;;32.58;3.95;;;;;;;8.24;100.00;99188.16;5107334;28;20105;-45
2023/12/07 03:11:17;;;;;;;17.23;3.92;;;;;;;8.25;100.00;99189.78;5107600;28;20549;-47
2023/12/07 03:13:44;;;;;;;17.65;3.45;;;;;;;8.25;100.00;99173.22;5099602;28;20458;-46
2023/12/07 03:16:13;;;;;;;17.85;3.13;;;;;;;8.29;100.00;99179.63;5107143;28;20044;-45
2023/12/07 03:18:41;;;;;;;14.55;2.75;;;;;;;8.29;100.00;99157.56;5107474;28;20096;-50
2023/12/07 03:21:08;;;;;;;24.23;4.40;;;;;;;8.31;100.00;99166.28;5107887;28;20043;-47
2023/12/07 03:23:36;;;;;;;16.33;2.97;;;;;;;8.32;100.00;99143.03;5094048;28;20049;-49
2023/12/07 03:26:03;;;;;;;23.80;2.85;;;;;;;8.33;100.00;99130.84;5097161;28;20044;-46
2023/12/07 03:28:31;;;;;;;21.15;2.72;;;;;;;8.35;100.00;99123.00;5100563;28;20101;-45
2023/12/07 03:30:58;;;;;;;27.35;4.65;;;;;;;8.35;100.00;99107.25;5079558;28;20109;-48
2023/12/07 03:33:25;;;;;;;35.53;7.30;;;;;;;8.36;100.00;99108.88;5101040;28;20036;-45
2023/12/07 03:35:53;;;;;;;17.45;4.38;;;;;;;8.40;100.00;99097.88;5089455;28;20059;-46
2023/12/07 03:38:20;;;;;;;12.70;3.85;;;;;;;8.41;100.00;99107.75;5105858;28;20051;-46
2023/12/07 03:40:49;;;;;;;19.00;3.63;;;;;;;8.44;100.00;99098.72;5102081;28;20088;-48
2023/12/07 03:43:20;;;;;;;20.15;3.63;;;;;;;8.46;100.00;99101.91;5106005;28;20520;-45
2023/12/07 03:45:48;;;;;;;19.52;4.15;;;;;;;8.48;100.00;99091.28;5107121;28;20055;-46
2023/12/07 03:48:15;;;;;;;20.27;5.45;;;;;;;8.49;100.00;99087.38;5108048;28;20085;-48
2023/12/07 03:50:42;;;;;;;17.88;4.60;;;;;;;8.50;100.00;99091.72;5110717;28;20040;-45
2023/12/07 03:53:10;;;;;;;13.75;3.95;;;;;;;8.51;100.00;99074.81;5111046;28;20096;-46
2023/12/07 03:55:37;;;;;;;24.60;5.35;;;;;;;8.53;100.00;99077.19;5075574;28;20597;-48
2023/12/07 03:58:05;;;;;;;19.02;3.72;;;;;;;8.54;100.00;99076.03;5108130;28;20122;-45
2023/12/07 04:00:32;;;;;;;24.27;4.93;;;;;;;8.55;100.00;99069.34;5093050;28;20036;-45
2023/12/07 04:03:00;;;;;;;14.88;1.95;;;;;;;8.57;100.00;99072.53;5111303;28;20061;-47
2023/12/07 04:05:27;;;;;;;19.85;3.35;;;;;;;8.58;100.00;99068.59;5110015;28;20058;-47
2023/12/07 04:07:55;;;;;;;11.77;2.45;;;;;;;8.57;100.00;99064.25;5099102;28;20118;-48
2023/12/07 04:10:23;;;;;;;18.58;3.03;;;;;;;8.60;100.00;99063.50;5110287;28;20416;-50
2023/12/07 04:12:54;;;;;;;14.60;2.63;;;;;;;8.63;100.00;99061.97;5102665;28;20432;-46
2023/12/07 04:15:21;;;;;;;23.45;2.58;;;;;;;8.63;100.00;99059.97;5110373;28;21481;-46
2023/12/07 04:17:49;;;;;;;13.25;2.13;;;;;;;8.64;100.00;99063.53;5092642;28;20040;-48
2023/12/07 04:20:17;;;;;;;12.65;2.97;;;;;;;8.66;100.00;99062.00;5110057;28;20039;-45
2023/12/07 04:22:45;;;;;;;16.42;3.40;;;;;;;8.68;100.00;99067.97;5111077;28;20077;-46
2023/12/07 04:25:13;;;;;;;11.48;2.63;;;;;;;8.69;100.00;99050.22;5101518;28;20076;-45
2023/12/07 04:27:40;;;;;;;17.05;2.63;;;;;;;8.70;100.00;99043.56;5092813;28;20455;-46
2023/12/07 04:30:08;;;;;;;14.13;2.47;;;;;;;8.72;100.00;99046.72;5109466;28;20048;-48
2023/12/07 04:32:35;;;;;;;18.20;2.50;;;;;;;8.73;100.00;99050.28;5110540;28;20035;-46
2023/12/07 04:35:03;;;;;;;10.73;2.38;;;;;;;8.74;100.00;99041.63;5110154;28;20043;-47
2023/12/07 04:37:30;;;;;;;15.00;2.38;;;;;;;8.75;100.00;99037.69;5110745;28;20097;-46
2023/12/07 04:39:58;;;;;;;13.93;2.08;;;;;;;8.77;100.00;99040.06;5110359;28;20088;-46
2023/12/07 04:42:26;;;;;;;19.67;2.67;;;;;;;8.78;100.00;99028.69;5083333;28;20466;-46
2023/12/07 04:44:54;;;;;;;14.93;3.65;;;;;;;8.80;100.00;99029.09;5110425;28;20040;-45
2023/12/07 04:47:23;;;;;;;10.18;2.65;;;;;;;8.82;100.00;99017.66;5109268;28;20090;-50
2023/12/07 04:49:50;;;;;;;16.35;3.13;;;;;;;8.83;100.00;99022.03;5070915;28;20056;-47
2023/12/07 04:52:19;;;;;;;14.23;2.53;;;;;;;8.83;100.00;99016.50;5109253;28;20109;-47
2023/12/07 04:54:46;;;;;;;14.07;2.42;;;;;;;8.85;100.00;99003.91;5109936;28;20505;-49
2023/12/07 04:57:14;;;;;;;22.33;3.78;;;;;;;8.85;100.00;99003.91;5103006;28;20495;-46
2023/12/07 04:59:41;;;;;;;16.92;2.85;;;;;;;8.86;100.00;98994.47;5106876;28;20048;-48
2023/12/07 05:02:09;;;;;;;23.77;3.15;;;;;;;8.88;100.00;98996.84;5108940;28;20055;-49
2023/12/07 05:04:36;;;;;;;20.05;3.95;;;;;;;8.89;100.00;98982.69;5109533;28;20055;-45
2023/12/07 05:07:04;;;;;;;15.55;2.75;;;;;;;8.90;100.00;98984.28;5109955;28;20835;-46
2023/12/07 05:09:31;;;;;;;21.85;3.95;;;;;;;8.91;100.00;98965.75;5109361;28;20035;-47
2023/12/07 05:11:59;;;;;;;16.67;4.20;;;;;;;8.93;100.00;98972.47;5109821;28;20059;-49
2023/12/07 05:14:26;;;;;;;20.83;4.13;;;;;;;8.94;100.00;98974.09;5104014;28;20089;-50
2023/12/07 05:16:55;;;;;;;20.38;4.38;;;;;;;8.96;100.00;98977.25;5109214;28;20068;-50
2023/12/07 05:19:24;;;;;;;27.30;4.60;;;;;;;8.98;100.00;98969.38;5109187;28;20123;-48
2023/12/07 05:21:52;;;;;;;35.05;6.53;;;;;;;8.99;100.00;98979.25;5109085;28;20039;-47
2023/12/07 05:24:20;;;;;;;42.33;6.45;;;;;;;9.00;100.00;98980.84;5109633;28;20036;-47
2023/12/07 05:26:47;;;;;;;37.30;5.90;;;;;;;9.02;100.00;98973.00;5109075;28;20770;-49
2023/12/07 05:29:15;;;;;;;31.48;7.35;;;;;;;9.03;100.00;98963.53;5099123;28;20449;-46
2023/12/07 05:31:42;;;;;;;33.42;6.40;;;;;;;9.05;100.00;98969.44;5108346;28;20370;-48
2023/12/07 05:34:09;;;;;;;48.50;8.68;;;;;;;9.07;100.00;98969.88;5099171;28;20065;-48
2023/12/07 05:36:37;;;;;;;42.42;6.88;;;;;;;9.08;100.00;98954.13;5109051;28;20047;-46
2023/12/07 05:39:07;;;;;;;50.15;8.38;;;;;;;9.10;100.00;98966.38;5109933;28;20064;-45
2023/12/07 05:41:34;;;;;;;44.85;8.65;;;;;;;9.10;100.00;98960.84;5107673;28;20088;-46
2023/12/07 05:44:03;;;;;;;53.25;9.68;;;;;;;9.09;100.00;98948.22;5101909;28;20087;-55
2023/12/07 05:46:32;;;;;;;44.15;8.32;;;;;;;9.10;100.00;98944.28;5106566;28;20152;-46
2023/12/07 05:48:59;;;;;;;51.92;9.23;;;;;;;9.10;100.00;98936.00;5091349;28;20489;-46
2023/12/07 05:51:27;;;;;;;47.58;12.70;;;;;;;9.12;100.00;98933.66;5108307;28;20096;-45
2023/12/07 05:53:54;;;;;;;56.30;9.70;;;;;;;9.12;100.00;98939.19;5091056;28;20048;-47
2023/12/07 05:56:22;;;;;;;53.22;10.65;;;;;;;9.12;100.00;98925.38;5107985;28;20040;-48
2023/12/07 05:58:50;;;;;;;45.75;8.35;;;;;;;9.12;100.00;98914.31;5106188;28;20117;-48
2023/12/07 06:01:18;;;;;;;59.67;8.48;;;;;;;9.13;100.00;98909.59;5108609;28;20051;-45
2023/12/07 06:03:47;;;;;;;55.20;9.75;;;;;;;9.11;100.00;98906.41;5106566;28;20059;-48
2023/12/07 06:06:14;;;;;;;50.08;7.25;;;;;;;9.11;100.00;98909.16;5102625;28;20039;-53
2023/12/07 06:08:42;;;;;;;51.10;9.35;;;;;;;9.12;100.00;98896.97;5108455;28;20093;-47
2023/12/07 06:11:09;;;;;;;49.60;7.05;;;;;;;9.14;100.00;98889.88;5108075;28;20043;-50
2023/12/07 06:13:37;;;;;;;33.17;6.43;;;;;;;9.16;100.00;98890.28;5091068;28;20051;-48
2023/12/07 06:16:05;;;;;;;38.63;6.35;;;;;;;9.20;100.00;98887.56;5108452;28;20088;-48
2023/12/07 06:18:32;;;;;;;40.63;6.18;;;;;;;9.23;100.00;98891.53;5070521;28;20498;-48
2023/12/07 06:21:00;;;;;;;42.13;7.97;;;;;;;9.24;100.00;98884.84;5107694;28;20048;-45
2023/12/07 06:23:27;;;;;;;36.92;6.75;;;;;;;9.25;100.00;98870.66;5090631;28;20505;-46
2023/12/07 06:25:54;;;;;;;56.28;9.82;;;;;;;9.26;100.00;98855.69;5108713;28;20051;-48
2023/12/07 06:28:22;;;;;;;46.38;8.35;;;;;;;9.29;100.00;98859.66;5109098;28;20424;-46
2023/12/07 06:30:50;;;;;;;57.65;8.20;;;;;;;9.29;100.00;98857.69;5107959;28;20097;-49
2023/12/07 06:33:17;;;;;;;60.80;9.95;;;;;;;9.30;100.00;98858.47;5108500;28;20096;-52
2023/12/07 06:35:46;;;;;;;58.70;9.65;;;;;;;9.33;100.00;98863.22;5107642;28;20059;-45
2023/12/07 06:38:14;;;;;;;44.45;6.32;;;;;;;9.35;100.00;98856.13;5108351;28;20035;-46
2023/12/07 06:40:42;;;;;;;43.70;6.82;;;;;;;9.37;100.00;98853.78;5089609;28;20398;-45
2023/12/07 06:43:10;;;;;;;51.47;8.23;;;;;;;9.39;100.00;98850.66;5069910;28;20036;-46
2023/12/07 06:45:38;;;;;;;63.28;9.50;;;;;;;9.41;100.00;98831.72;5099131;28;20048;-51
2023/12/07 06:48:05;;;;;;;41.88;7.30;;;;;;;9.42;100.00;98844.38;5107631;28;20031;-52
2023/12/07 06:50:33;;;;;;;42.50;8.70;;;;;;;9.44;100.00;98837.28;5108547;28;20047;-48
2023/12/07 06:53:00;;;;;;;51.15;8.35;;;;;;;9.45;100.00;98838.09;5108072;28;20054;-48
2023/12/07 06:55:27;;;;;;;44.90;7.53;;;;;;;9.46;100.00;98836.88;5088783;28;20100;-47
2023/12/07 06:57:55;;;;;;;46.65;8.20;;;;;;;9.47;100.00;98836.50;5094524;28;20565;-45
2023/12/07 07:00:24;;;;;;;63.92;9.52;;;;;;;9.47;100.00;98819.94;5108220;28;20050;-47
2023/12/07 07:02:52;;;;;;;45.40;9.82;;;;;;;9.48;100.00;98815.19;5107649;28;20105;-48
2023/12/07 07:05:19;;;;;;;58.08;10.35;;;;;;;9.49;100.00;98802.97;5089794;28;20077;-47
2023/12/07 07:07:47;;;;;;;61.85;9.82;;;;;;;9.49;100.00;98805.72;5107972;28;20081;-46
2023/12/07 07:10:14;;;;;;;75.43;12.95;;;;;;;9.51;100.00;98803.38;5107241;28;20047;-46
2023/12/07 07:12:42;;;;;;;66.20;10.45;;;;;;;9.53;100.00;98801.03;5107614;28;20035;-45
2023/12/07 07:15:09;;;;;;;55.45;9.10;;;;;;;9.54;100.00;98797.88;5107279;28;20054;-47
2023/12/07 07:17:36;;;;;;;36.92;8.52;;;;;;;9.55;100.00;98782.91;5107104;28;20089;-46
2023/12/07 07:20:04;;;;;;;106.85;18.10;;;;;;;9.56;100.00;98772.63;5107555;28;20039;-48
2023/12/07 07:22:32;;;;;;;79.20;13.02;;;;;;;9.57;100.00;98771.44;5106996;28;20374;-48
2023/12/07 07:25:00;;;;;;;66.18;13.75;;;;;;;9.57;100.00;98763.16;5089807;28;20035;-49
2023/12/07 07:27:28;;;;;;;85.40;14.88;;;;;;;9.57;100.00;98763.16;5108648;28;20047;-45
2023/12/07 07:29:55;;;;;;;61.38;12.27;;;;;;;9.58;100.00;98776.56;5096235;28;20044;-45
2023/12/07 07:32:23;;;;;;;60.60;8.85;;;;;;;9.60;100.00;98767.91;5107374;28;20113;-47
2023/12/07 07:34:50;;;;;;;65.68;10.23;;;;;;;9.60;100.00;98767.91;5099499;28;20048;-49
2023/12/07 07:37:18;;;;;;;65.38;11.55;;;;;;;9.61;100.00;98758.47;5107529;28;20081;-55
2023/12/07 07:39:47;;;;;;;59.33;10.25;;;;;;;9.62;100.00;98762.78;5087462;28;20141;-45
2023/12/07 07:42:15;;;;;;;57.47;10.48;;;;;;;9.64;100.00;98752.16;5107407;28;20488;-52
2023/12/07 07:44:42;;;;;;;63.58;10.57;;;;;;;9.63;100.00;98770.72;5106451;28;20751;-50
2023/12/07 07:47:09;;;;;;;67.15;10.93;;;;;;;9.64;100.00;98774.25;5107555;28;20048;-45
2023/12/07 07:49:37;;;;;;;61.47;11.65;;;;;;;9.64;100.00;98771.47;5107383;28;20093;-47
2023/12/07 07:52:05;;;;;;;78.65;13.55;;;;;;;9.66;100.00;98769.16;5107276;28;20561;-48
2023/12/07 07:54:32;;;;;;;59.88;12.88;;;;;;;9.65;100.00;98773.88;5088482;28;20093;-48
2023/12/07 07:56:59;;;;;;;77.38;15.63;;;;;;;9.66;100.00;98777.44;5101491;28;20039;-46
2023/12/07 07:59:27;;;;;;;75.32;12.10;;;;;;;9.66;100.00;98777.44;5107145;28;20036;-48
2023/12/07 08:01:54;;;;;;;65.32;13.70;;;;;;;9.67;100.00;98773.47;5074720;28;20737;-45
2023/12/07 08:04:22;;;;;;;76.18;11.13;;;;;;;9.68;100.00;98758.50;5105576;28;20370;-45
2023/12/07 08:06:49;;;;;;;47.97;9.00;;;;;;;9.69;100.00;98749.00;5107344;28;20527;-49
2023/12/07 08:09:17;;;;;;;58.70;9.88;;;;;;;9.70;100.00;98750.59;5106960;28;20558;-48
2023/12/07 08:11:44;;;;;;;43.55;8.20;;;;;;;9.71;100.00;98741.94;5107619;28;20058;-46
2023/12/07 08:14:12;;;;;;;45.97;8.07;;;;;;;9.72;100.00;98743.50;5106689;28;20035;-50
2023/12/07 08:16:46;;;;;;;36.03;6.43;;;;;;;9.74;100.00;98740.38;5107320;28;20048;-47
2023/12/07 08:19:15;;;;;;;26.02;5.82;;;;;;;9.76;100.00;98733.28;5107397;28;20093;-47
2023/12/07 08:21:43;;;;;;;29.98;5.80;;;;;;;9.78;100.00;98719.06;5105626;28;20561;-47
2023/12/07 08:24:12;;;;;;;28.75;6.43;;;;;;;9.82;100.00;98706.06;5105872;28;20044;-47
2023/12/07 08:26:41;;;;;;;31.83;8.57;;;;;;;9.82;100.00;98701.31;5103475;28;20039;-48
2023/12/07 08:29:08;;;;;;;32.08;5.97;;;;;;;9.85;100.00;98701.72;5088325;28;20053;-50
2023/12/07 08:31:37;;;;;;;29.48;6.57;;;;;;;9.85;100.00;98685.13;5105594;28;20052;-47
2023/12/07 08:34:05;;;;;;;35.08;6.45;;;;;;;9.86;100.00;98673.69;5105718;28;20051;-48
2023/12/07 08:36:33;;;;;;;28.02;6.68;;;;;;;9.89;100.00;98675.66;5105401;28;20043;-47
2023/12/07 08:39:00;;;;;;;33.00;6.47;;;;;;;9.89;100.00;98686.72;5103570;28;20535;-49
2023/12/07 08:41:27;;;;;;;30.83;6.18;;;;;;;9.92;100.00;98679.63;5108966;28;20092;-46
2023/12/07 08:43:55;;;;;;;41.33;9.20;;;;;;;9.92;100.00;98669.38;5110703;28;20062;-50
2023/12/07 08:46:22;;;;;;;28.75;6.05;;;;;;;9.93;100.00;98664.63;5109794;28;20040;-46
2023/12/07 08:48:50;;;;;;;52.13;7.20;;;;;;;9.93;100.00;98665.41;5107563;28;20374;-49
2023/12/07 08:51:17;;;;;;;42.97;9.73;;;;;;;9.92;100.00;98669.38;5108796;28;20045;-47
2023/12/07 08:53:46;;;;;;;54.10;9.02;;;;;;;9.94;100.00;98666.19;5110666;28;20044;-46
2023/12/07 08:56:18;;;;;;;61.10;11.45;;;;;;;9.93;100.00;98668.16;5110279;28;20043;-47
2023/12/07 08:58:45;;;;;;;52.97;10.45;;;;;;;9.94;100.00;98667.00;5087320;28;20044;-47
2023/12/07 09:01:13;;;;;;;63.90;10.48;;;;;;;9.97;100.00;98666.22;5109826;28;20043;-47
2023/12/07 09:03:56;;;;;;;63.33;10.65;;;;;;;9.99;100.00;98669.38;5088848;28;20101;-45
2023/12/07 09:06:23;;;;;;;61.95;12.07;;;;;;;10.00;100.00;98668.19;5089892;28;20490;-45
2023/12/07 09:08:51;;;;;;;87.25;16.65;;;;;;;9.99;100.00;98658.31;5089506;28;20056;-47
2023/12/07 09:11:18;;;;;;;72.90;12.88;;;;;;;9.98;100.00;98673.31;5080237;28;20097;-46
2023/12/07 09:13:46;;;;;;;93.63;13.75;;;;;;;9.98;100.00;98645.66;5079133;28;20048;-47
2023/12/07 09:16:15;;;;;;;74.22;13.32;;;;;;;9.98;100.00;98661.47;5089708;28;20509;-46
2023/12/07 09:18:45;;;;;;;43.42;10.25;;;;;;;9.99;100.00;98652.78;5076569;28;20032;-47
2023/12/07 09:21:12;;;;;;;36.50;8.02;;;;;;;10.00;100.00;98665.44;5088767;28;20505;-48
2023/12/07 09:23:41;;;;;;;36.17;8.13;;;;;;;10.00;100.00;98670.97;5089842;28;20064;-50
2023/12/07 09:26:09;;;;;;;17.98;4.88;;;;;;;10.01;100.00;98655.16;5090089;28;20086;-48
2023/12/07 09:28:36;;;;;;;22.77;3.60;;;;;;;10.00;100.00;98642.53;5089751;28;20059;-46
2023/12/07 09:31:03;;;;;;;14.90;2.92;;;;;;;10.00;100.00;98637.00;5077097;28;20048;-49
2023/12/07 09:33:31;;;;;;;6.18;3.00;;;;;;;10.01;100.00;98644.09;5086452;28;20040;-51
2023/12/07 09:35:58;;;;;;;8.77;2.70;;;;;;;10.01;100.00;98622.78;5080275;28;20509;-46
2023/12/07 09:38:26;;;;;;;16.90;2.88;;;;;;;10.02;100.00;98613.31;5089925;28;20036;-48
2023/12/07 09:40:54;;;;;;;10.07;3.55;;;;;;;10.03;100.00;98603.84;5089921;28;20485;-46
2023/12/07 09:43:22;;;;;;;10.18;2.78;;;;;;;10.03;100.00;98598.31;5088924;28;20451;-45
2023/12/07 09:45:54;;;;;;;15.18;3.55;;;;;;;10.05;100.00;98592.38;5089075;28;20180;-46
2023/12/07 09:48:22;;;;;;;9.85;2.97;;;;;;;10.04;100.00;98566.69;5082814;28;20044;-47
2023/12/07 09:50:52;;;;;;;9.80;2.72;;;;;;;10.04;100.00;98563.13;5083366;28;20051;-46
2023/12/07 09:53:19;;;;;;;8.55;3.03;;;;;;;10.04;100.00;98568.66;5089581;28;20047;-46
2023/12/07 09:55:47;;;;;;;13.80;3.60;;;;;;;10.03;100.00;98581.72;5087294;28;20040;-48
2023/12/07 09:58:14;;;;;;;14.40;3.40;;;;;;;10.03;100.00;98597.50;5088929;28;20059;-46
2023/12/07 10:00:43;;;;;;;6.63;2.40;;;;;;;10.02;100.00;98577.38;5075630;28;20117;-47
2023/12/07 10:03:21;;;;;;;13.18;3.65;;;;;;;10.03;100.00;98583.69;5101750;28;20702;-47
2023/12/07 10:05:58;;;;;;;7.15;2.63;;;;;;;10.05;100.00;98579.34;5107144;28;20043;-46
2023/12/07 10:08:30;;;;;;;3.65;1.75;;;;;;;10.06;100.00;98596.72;5097612;28;20048;-46
2023/12/07 10:11:18;;;;;;;13.32;2.28;;;;;;;10.05;100.00;98579.34;5108483;28;20378;-48
2023/12/07 10:13:45;;;;;;;11.65;2.53;;;;;;;10.06;100.00;98575.38;5108390;28;20096;-47
2023/12/07 10:16:16;;;;;;;7.60;1.83;;;;;;;10.07;100.00;98565.91;5108808;28;20051;-48
2023/12/07 10:18:43;;;;;;;8.10;1.50;;;;;;;10.08;100.00;98561.97;5108277;28;20048;-47
2023/12/07 10:21:12;;;;;;;26.50;2.88;;;;;;;10.11;100.00;98557.63;5101608;28;20043;-48
2023/12/07 10:23:47;;;;;;;4.65;1.58;;;;;;;10.13;100.00;98552.53;5108772;28;20093;-50
2023/12/07 10:26:19;;;;;;;11.00;1.30;;;;;;;10.13;100.00;98552.53;5108816;28;20096;-48
2023/12/07 10:28:54;;;;;;;14.35;1.58;;;;;;;10.15;100.00;98555.66;5108084;28;20039;-48
2023/12/07 10:31:23;;;;;;;10.75;1.80;;;;;;;10.17;100.00;98553.28;5100590;28;20043;-45
2023/12/07 10:33:51;;;;;;;5.82;1.95;;;;;;;10.19;100.00;98537.88;5104441;28;20047;-48
2023/12/07 10:36:19;;;;;;;8.50;1.70;;;;;;;10.20;100.00;98547.78;5108201;28;20044;-48
2023/12/07 10:38:50;;;;;;;9.02;1.95;;;;;;;10.22;100.00;98550.94;5108824;28;20129;-45
2023/12/07 10:41:20;;;;;;;8.65;1.70;;;;;;;10.23;100.00;98541.47;5108272;28;20056;-49
2023/12/07 10:43:53;;;;;;;8.88;2.92;;;;;;;10.26;100.00;98537.91;5108264;28;20046;-52
2023/12/07 10:46:22;;;;;;;9.55;1.77;;;;;;;10.29;100.00;98539.88;5107425;28;20085;-51
2023/12/07 10:48:56;;;;;;;12.57;1.90;;;;;;;10.30;100.00;98533.16;5108465;28;20052;-45
2023/12/07 10:51:31;;;;;;;8.15;1.60;;;;;;;10.30;100.00;98511.00;5099363;28;20052;-49
2023/12/07 10:54:03;;;;;;;6.25;1.33;;;;;;;10.32;100.00;98510.63;5070285;28;20051;-47
2023/12/07 10:56:42;;;;;;;12.27;2.00;;;;;;;10.33;100.00;98506.66;5107380;28;20043;-51
2023/12/07 10:59:13;;;;;;;14.02;3.08;;;;;;;10.33;100.00;98498.38;5107553;28;20104;-49
2023/12/07 11:01:56;;;;;;;10.75;2.03;;;;;;;10.33;100.00;98507.47;5091015;28;20097;-46
2023/12/07 11:04:25;;;;;;;10.35;2.08;;;;;;;10.33;100.00;98490.06;5107599;28;20047;-48
2023/12/07 11:06:57;;;;;;;10.93;1.75;;;;;;;10.33;100.00;98476.25;5105886;28;20048;-47
2023/12/07 11:09:31;;;;;;;15.48;2.13;;;;;;;10.33;100.00;98485.34;5106592;28;20168;-45
2023/12/07 11:12:09;;;;;;;26.27;3.33;;;;;;;10.33;100.00;98468.75;5101148;28;20135;-51
2023/12/07 11:14:38;;;;;;;16.75;2.75;;;;;;;10.34;100.00;98448.19;5098791;28;20093;-51
2023/12/07 11:17:06;;;;;;;11.18;2.38;;;;;;;10.35;100.00;98452.53;5107368;28;20439;-48
2023/12/07 11:19:36;;;;;;;22.63;3.15;;;;;;;10.36;100.00;98454.13;5108260;28;20048;-46
2023/12/07 11:22:06;;;;;;;15.25;2.72;;;;;;;10.36;100.00;98456.88;5107504;28;20051;-46
2023/12/07 11:24:35;;;;;;;8.95;1.88;;;;;;;10.37;100.00;98452.16;5088878;28;20047;-49
2023/12/07 11:27:04;;;;;;;15.95;2.60;;;;;;;10.38;100.00;98435.13;5094258;28;20861;-47
2023/12/07 11:29:32;;;;;;;17.75;3.08;;;;;;;10.38;100.00;98428.81;5107793;28;20047;-46